createdAt,value
2018-05-31T00:01:00.311Z,85.10
2018-05-31T00:03:28.628Z,86.50
2018-05-31T00:05:57.008Z,86.70
2018-05-31T00:08:24.588Z,86.70
2018-05-31T00:10:53.141Z,86.70
2018-05-31T00:13:20.741Z,86.50
2018-05-31T00:15:48.249Z,86.70
2018-05-31T00:18:16.538Z,86.40
2018-05-31T00:20:44.838Z,85.90
2018-05-31T00:23:12.385Z,85.80
2018-05-31T00:25:39.981Z,85.40
2018-05-31T00:28:07.515Z,85.50
2018-05-31T00:30:35.027Z,85.70
2018-05-31T00:33:02.739Z,85.50
2018-05-31T00:35:31.018Z,85.20
2018-05-31T00:37:59.302Z,85.10
2018-05-31T00:40:27.593Z,85.00
2018-05-31T00:42:55.141Z,85.00
2018-05-31T00:45:23.426Z,85.50
2018-05-31T00:47:51.715Z,85.50
2018-05-31T00:50:19.261Z,85.50
2018-05-31T00:52:47.561Z,85.20
2018-05-31T00:55:15.070Z,85.20
2018-05-31T00:57:42.590Z,85.00
2018-05-31T01:00:10.148Z,85.00
2018-05-31T01:02:37.729Z,85.50
2018-05-31T01:05:05.258Z,85.40
2018-05-31T01:07:32.801Z,85.30
2018-05-31T01:10:00.331Z,85.20
2018-05-31T01:12:28.669Z,85.20
2018-05-31T01:14:56.944Z,85.60
2018-05-31T01:17:25.173Z,85.60
2018-05-31T01:19:52.739Z,86.00
2018-05-31T01:22:20.263Z,86.20
2018-05-31T01:24:47.869Z,85.80
2018-05-31T01:27:15.389Z,86.00
2018-05-31T01:29:42.922Z,86.00
2018-05-31T01:32:10.433Z,86.20
2018-05-31T01:34:38.731Z,85.80
2018-05-31T01:37:06.243Z,85.80
2018-05-31T01:39:33.756Z,85.80
2018-05-31T01:42:01.300Z,85.60
2018-05-31T01:44:28.854Z,86.00
2018-05-31T01:46:57.189Z,85.90
2018-05-31T01:49:24.726Z,85.80
2018-05-31T01:51:52.270Z,85.60
2018-05-31T01:54:20.593Z,87.20
2018-05-31T01:56:48.118Z,87.20
2018-05-31T01:59:16.429Z,87.80
2018-05-31T02:01:44.002Z,87.70
2018-05-31T02:04:11.746Z,87.80
2018-05-31T02:06:39.465Z,87.50
2018-05-31T02:09:07.012Z,87.70
2018-05-31T02:11:34.813Z,86.90
2018-05-31T02:14:02.483Z,86.60
2018-05-31T02:16:30.808Z,86.60
2018-05-31T02:18:58.514Z,86.60
2018-05-31T02:21:26.323Z,86.70
2018-05-31T02:23:54.637Z,88.00
2018-05-31T02:26:22.160Z,87.90
2018-05-31T02:28:50.464Z,86.90
2018-05-31T02:31:18.236Z,86.90
2018-05-31T02:33:45.873Z,86.70
2018-05-31T02:36:13.627Z,87.10
2018-05-31T02:38:42.007Z,86.80
2018-05-31T02:41:09.830Z,86.80
2018-05-31T02:43:37.590Z,87.00
2018-05-31T02:46:05.353Z,87.20
2018-05-31T02:48:33.168Z,87.20
2018-05-31T02:51:00.932Z,87.20
2018-05-31T02:53:28.691Z,87.30
2018-05-31T02:55:56.326Z,87.30
2018-05-31T02:58:23.855Z,87.30
2018-05-31T03:00:52.177Z,88.00
2018-05-31T03:03:19.693Z,87.70
2018-05-31T03:05:48.000Z,89.00
2018-05-31T03:08:16.580Z,88.90
2018-05-31T03:10:44.866Z,88.50
2018-05-31T03:13:13.166Z,88.20
2018-05-31T03:15:40.693Z,88.30
2018-05-31T03:18:08.206Z,88.00
2018-05-31T03:20:35.763Z,87.50
2018-05-31T03:23:03.294Z,87.40
2018-05-31T03:25:31.601Z,87.70
2018-05-31T03:27:59.132Z,87.60
2018-05-31T03:30:27.438Z,87.80
2018-05-31T03:32:54.961Z,87.80
2018-05-31T03:35:22.489Z,87.80
2018-05-31T03:37:50.076Z,87.70
2018-05-31T03:40:17.607Z,87.50
2018-05-31T03:42:45.138Z,87.40
2018-05-31T03:45:13.445Z,88.30
2018-05-31T03:47:40.987Z,87.60
2018-05-31T03:50:09.281Z,87.70
2018-05-31T03:52:36.817Z,87.70
2018-05-31T03:55:04.320Z,87.40
2018-05-31T03:57:31.863Z,87.50
2018-05-31T04:00:00.164Z,88.00
2018-05-31T04:02:27.724Z,88.00
2018-05-31T04:04:55.538Z,88.20
2018-05-31T04:07:23.072Z,88.80
2018-05-31T04:09:50.611Z,89.40
2018-05-31T04:12:18.149Z,89.40
2018-05-31T04:14:47.291Z,88.10
2018-05-31T04:17:14.836Z,88.00
2018-05-31T04:19:42.398Z,89.50
2018-05-31T04:22:09.956Z,89.40
2018-05-31T04:24:38.274Z,90.30
2018-05-31T04:27:05.828Z,90.30
2018-05-31T04:29:33.362Z,89.40
2018-05-31T04:32:01.667Z,88.40
2018-05-31T04:34:29.219Z,88.30
2018-05-31T04:36:56.737Z,87.80
2018-05-31T04:39:24.269Z,88.10
2018-05-31T04:41:51.811Z,88.30
2018-05-31T04:44:19.358Z,89.00
2018-05-31T04:46:47.652Z,87.60
2018-05-31T04:49:15.201Z,87.50
2018-05-31T04:51:43.503Z,87.50
2018-05-31T04:54:11.817Z,86.90
2018-05-31T04:56:39.343Z,86.90
2018-05-31T04:59:06.902Z,86.60
2018-05-31T05:01:35.225Z,86.90
2018-05-31T05:04:02.749Z,86.80
2018-05-31T05:06:31.061Z,88.30
2018-05-31T05:08:58.569Z,88.20
2018-05-31T05:11:26.100Z,87.90
2018-05-31T05:13:53.610Z,87.60
2018-05-31T05:16:21.170Z,88.30
2018-05-31T05:18:49.515Z,88.40
2018-05-31T05:21:17.811Z,88.20
2018-05-31T05:23:45.320Z,88.10
2018-05-31T05:26:12.861Z,87.60
2018-05-31T05:28:41.147Z,87.70
2018-05-31T05:31:09.437Z,87.40
2018-05-31T05:33:36.958Z,87.40
2018-05-31T05:36:04.495Z,87.10
2018-05-31T05:38:32.027Z,87.70
2018-05-31T05:41:00.318Z,89.00
2018-05-31T05:43:27.893Z,88.30
2018-05-31T05:45:55.425Z,88.30
2018-05-31T05:48:23.735Z,87.80
2018-05-31T05:50:51.327Z,87.80
2018-05-31T05:53:19.653Z,87.20
2018-05-31T05:55:47.964Z,88.30
2018-05-31T05:58:15.530Z,87.70
2018-05-31T06:00:43.056Z,87.30
2018-05-31T06:03:11.397Z,87.50
2018-05-31T06:05:38.909Z,87.40
2018-05-31T06:08:07.189Z,87.10
2018-05-31T06:10:35.497Z,86.90
2018-05-31T06:13:03.024Z,86.80
2018-05-31T06:15:30.589Z,87.50
2018-05-31T06:17:58.078Z,86.80
2018-05-31T06:20:25.593Z,86.20
2018-05-31T06:22:53.122Z,85.80
2018-05-31T06:25:20.657Z,86.00
2018-05-31T06:27:48.942Z,84.30
2018-05-31T06:30:17.275Z,83.70
2018-05-31T06:32:44.810Z,83.60
2018-05-31T06:35:12.371Z,82.60
2018-05-31T06:37:39.936Z,82.50
2018-05-31T06:40:07.447Z,82.60
2018-05-31T06:42:35.006Z,81.60
2018-05-31T06:45:02.505Z,81.70
2018-05-31T06:47:30.818Z,82.10
2018-05-31T06:49:58.353Z,82.00
2018-05-31T06:52:26.633Z,82.20
2018-05-31T06:54:54.943Z,81.70
2018-05-31T06:57:22.516Z,81.50
2018-05-31T06:59:50.049Z,80.70
2018-05-31T07:02:18.325Z,80.70
2018-05-31T07:04:46.609Z,81.20
2018-05-31T07:07:14.911Z,80.50
2018-05-31T07:09:42.414Z,80.40
2018-05-31T07:12:09.940Z,81.80
2018-05-31T07:14:37.477Z,82.00
2018-05-31T07:17:05.769Z,81.40
2018-05-31T07:19:33.289Z,81.40
2018-05-31T07:22:00.806Z,82.00
2018-05-31T07:24:28.324Z,82.50
2018-05-31T07:26:55.846Z,82.70
2018-05-31T07:29:24.109Z,82.20
2018-05-31T07:31:51.641Z,82.20
2018-05-31T07:34:20.109Z,80.60
2018-05-31T07:36:47.635Z,80.90
2018-05-31T07:39:15.139Z,80.00
2018-05-31T07:41:42.684Z,80.30
2018-05-31T07:44:10.191Z,80.50
2018-05-31T07:46:38.471Z,78.90
2018-05-31T07:49:06.828Z,78.70
2018-05-31T07:51:34.363Z,78.30
2018-05-31T07:54:01.892Z,77.40
2018-05-31T07:56:29.431Z,78.00
2018-05-31T07:58:56.961Z,78.10
2018-05-31T08:01:24.460Z,78.30
2018-05-31T08:03:51.991Z,75.20
2018-05-31T08:06:19.532Z,74.30
2018-05-31T08:08:47.891Z,75.20
2018-05-31T08:11:16.194Z,74.40
2018-05-31T08:13:43.724Z,74.30
2018-05-31T08:16:12.005Z,75.40
2018-05-31T08:18:40.282Z,74.80
2018-05-31T08:21:07.814Z,74.80
2018-05-31T08:23:35.346Z,75.20
2018-05-31T08:26:02.841Z,75.70
2018-05-31T08:28:30.376Z,76.30
2018-05-31T08:30:57.903Z,76.00
2018-05-31T08:33:26.160Z,76.20
2018-05-31T08:35:53.743Z,76.20
2018-05-31T08:38:22.018Z,75.30
2018-05-31T08:40:49.527Z,75.20
2018-05-31T08:43:17.071Z,75.20
2018-05-31T08:45:45.356Z,74.50
2018-05-31T08:48:12.876Z,74.40
2018-05-31T08:50:40.400Z,74.10
2018-05-31T08:53:08.682Z,74.00
2018-05-31T08:55:36.201Z,74.00
2018-05-31T08:58:04.479Z,74.10
2018-05-31T09:00:32.010Z,74.10
2018-05-31T09:03:00.132Z,74.70
2018-05-31T09:05:28.428Z,74.90
2018-05-31T09:07:55.997Z,74.90
2018-05-31T09:10:23.549Z,75.10
2018-05-31T09:12:51.865Z,74.90
2018-05-31T09:15:19.418Z,74.90
2018-05-31T09:17:46.950Z,73.90
2018-05-31T09:20:15.258Z,73.10
2018-05-31T09:22:42.773Z,73.10
2018-05-31T09:25:10.379Z,73.50
2018-05-31T09:27:37.884Z,74.90
2018-05-31T09:30:05.406Z,74.30
2018-05-31T09:32:32.925Z,74.40
2018-05-31T09:35:00.482Z,74.10
2018-05-31T09:37:28.005Z,74.20
2018-05-31T09:39:55.549Z,74.10
2018-05-31T09:42:23.079Z,73.70
2018-05-31T09:44:50.602Z,74.10
2018-05-31T09:47:19.178Z,75.10
2018-05-31T09:49:46.691Z,75.50
2018-05-31T09:52:14.243Z,74.80
2018-05-31T09:54:41.754Z,74.40
2018-05-31T09:57:10.023Z,75.70
2018-05-31T09:59:38.307Z,76.50
2018-05-31T10:02:06.580Z,77.50
2018-05-31T10:04:34.873Z,76.80
2018-05-31T10:07:03.194Z,77.10
2018-05-31T10:09:30.735Z,77.10
2018-05-31T10:11:58.266Z,77.80
2018-05-31T10:14:25.786Z,78.40
2018-05-31T10:16:53.277Z,80.20
2018-05-31T10:19:21.623Z,80.30
2018-05-31T10:21:49.235Z,80.30
2018-05-31T10:24:16.797Z,80.70
2018-05-31T10:26:44.333Z,81.20
2018-05-31T10:29:12.635Z,84.00
2018-05-31T10:31:40.145Z,83.90
2018-05-31T10:34:07.668Z,84.70
2018-05-31T10:36:35.931Z,83.60
2018-05-31T10:39:03.454Z,83.50
2018-05-31T10:41:30.962Z,85.70
2018-05-31T10:43:58.502Z,85.40
2018-05-31T10:46:26.054Z,83.70
2018-05-31T10:48:54.442Z,82.90
2018-05-31T10:51:21.998Z,82.80
2018-05-31T10:53:49.570Z,84.30
2018-05-31T10:56:17.081Z,84.20
2018-05-31T10:58:44.589Z,81.70
2018-05-31T11:01:12.109Z,83.60
2018-05-31T11:03:40.395Z,82.70
2018-05-31T11:06:08.711Z,83.30
2018-05-31T11:08:36.263Z,83.30
2018-05-31T11:11:03.743Z,83.40
2018-05-31T11:13:32.034Z,81.40
2018-05-31T11:16:00.327Z,81.70
2018-05-31T11:18:27.859Z,81.70
2018-05-31T11:20:55.398Z,80.90
2018-05-31T11:23:23.668Z,82.40
2018-05-31T11:25:51.191Z,82.30
2018-05-31T11:28:18.722Z,82.60
2018-05-31T11:30:46.257Z,83.60
2018-05-31T11:33:14.545Z,84.50
2018-05-31T11:35:42.835Z,85.30
2018-05-31T11:38:11.104Z,85.30
2018-05-31T11:40:38.701Z,85.30
2018-05-31T11:43:06.252Z,84.50
2018-05-31T11:45:33.773Z,84.70
2018-05-31T11:48:01.356Z,82.90
2018-05-31T11:50:29.660Z,84.10
2018-05-31T11:52:57.205Z,84.00
2018-05-31T11:55:25.496Z,80.50
2018-05-31T11:57:53.780Z,77.00
2018-05-31T12:00:22.083Z,75.20
2018-05-31T12:02:49.612Z,75.20
2018-05-31T12:05:17.623Z,75.80
2018-05-31T12:07:45.178Z,72.90
2018-05-31T12:10:12.705Z,72.90
2018-05-31T12:12:40.234Z,71.30
2018-05-31T12:15:07.825Z,69.80
2018-05-31T12:17:35.356Z,68.10
2018-05-31T12:20:02.838Z,70.00
2018-05-31T12:22:30.371Z,69.60
2018-05-31T12:24:57.903Z,69.80
2018-05-31T12:27:26.199Z,68.50
2018-05-31T12:29:53.722Z,68.50
2018-05-31T12:32:22.046Z,69.70
2018-05-31T12:34:49.561Z,69.50
2018-05-31T12:37:17.075Z,66.60
2018-05-31T12:39:44.592Z,68.30
2018-05-31T12:42:12.998Z,67.70
2018-05-31T12:44:41.287Z,65.40
2018-05-31T12:47:09.562Z,69.40
2018-05-31T12:49:37.870Z,70.10
2018-05-31T12:52:05.439Z,70.10
2018-05-31T12:54:32.962Z,71.30
2018-05-31T12:57:01.237Z,72.00
2018-05-31T12:59:29.818Z,68.60
2018-05-31T13:01:57.373Z,68.60
2018-05-31T13:04:24.894Z,69.20
2018-05-31T13:06:52.395Z,67.10
2018-05-31T13:09:19.925Z,67.00
2018-05-31T13:11:48.208Z,69.70
2018-05-31T13:14:15.798Z,69.60
2018-05-31T13:16:43.328Z,68.20
2018-05-31T13:19:10.856Z,66.50
2018-05-31T13:21:39.157Z,64.80
2018-05-31T13:24:07.431Z,66.60
2018-05-31T13:26:35.820Z,66.40
2018-05-31T13:29:04.130Z,65.60
2018-05-31T13:31:31.676Z,65.60
2018-05-31T13:33:59.223Z,66.40
2018-05-31T13:36:27.535Z,69.80
2018-05-31T13:38:55.081Z,69.70
2018-05-31T13:41:22.654Z,69.20
2018-05-31T13:43:50.189Z,69.60
2018-05-31T13:46:18.471Z,68.70
2018-05-31T13:48:46.731Z,68.70
2018-05-31T13:51:14.238Z,68.40
2018-05-31T13:53:41.746Z,68.40
2018-05-31T13:56:09.253Z,68.70
2018-05-31T13:58:37.550Z,70.40
2018-05-31T14:01:05.075Z,70.30
2018-05-31T14:03:32.593Z,70.30
2018-05-31T14:06:00.103Z,70.90
2018-05-31T14:08:27.626Z,68.00
2018-05-31T14:10:55.203Z,69.60
2018-05-31T14:13:22.745Z,69.20
2018-05-31T14:15:50.261Z,68.80
2018-05-31T14:18:18.564Z,68.40
2018-05-31T14:20:46.400Z,68.30
2018-05-31T14:23:13.998Z,69.00
2018-05-31T14:25:41.514Z,69.80
2018-05-31T14:28:09.131Z,67.80
2018-05-31T14:30:36.646Z,67.70
2018-05-31T14:33:04.177Z,68.70
2018-05-31T14:35:31.702Z,66.50
2018-05-31T14:38:00.088Z,64.90
2018-05-31T14:40:28.382Z,65.30
2018-05-31T14:42:55.902Z,65.20
2018-05-31T14:45:23.421Z,62.50
2018-05-31T14:47:50.922Z,61.60
2018-05-31T14:50:18.451Z,62.90
2018-05-31T14:52:45.957Z,64.20
2018-05-31T14:55:13.453Z,65.40
2018-05-31T14:57:41.752Z,65.30
2018-05-31T15:00:09.286Z,65.30
2018-05-31T15:02:36.839Z,65.10
2018-05-31T15:05:04.352Z,68.00
2018-05-31T15:07:31.878Z,67.70
2018-05-31T15:10:00.157Z,70.10
2018-05-31T15:12:28.463Z,70.50
2018-05-31T15:14:55.976Z,70.50
2018-05-31T15:17:23.515Z,70.20
2018-05-31T15:19:51.366Z,69.70
2018-05-31T15:22:18.890Z,69.70
2018-05-31T15:24:46.706Z,69.40
2018-05-31T15:27:14.221Z,68.80
2018-05-31T15:29:41.748Z,68.30
2018-05-31T15:32:09.604Z,67.60
2018-05-31T15:34:37.136Z,66.40
2018-05-31T15:37:05.413Z,65.60
2018-05-31T15:39:33.721Z,66.60
2018-05-31T15:42:01.290Z,66.40
2018-05-31T15:44:28.840Z,67.10
2018-05-31T15:46:56.367Z,66.80
2018-05-31T15:49:23.906Z,66.40
2018-05-31T15:51:51.468Z,66.10
2018-05-31T15:54:19.005Z,66.10
2018-05-31T15:56:46.573Z,66.70
2018-05-31T15:59:14.096Z,65.60
2018-05-31T16:01:42.607Z,66.30
2018-05-31T16:04:11.127Z,66.20
2018-05-31T16:06:38.671Z,66.20
2018-05-31T16:09:06.219Z,67.10
2018-05-31T16:11:33.735Z,67.00
2018-05-31T16:14:01.272Z,66.70
2018-05-31T16:16:28.812Z,67.30
2018-05-31T16:18:56.581Z,66.60
2018-05-31T16:21:24.114Z,67.70
2018-05-31T16:23:51.647Z,68.40
2018-05-31T16:26:19.147Z,68.10
2018-05-31T16:28:47.697Z,67.60
2018-05-31T16:31:15.502Z,67.50
2018-05-31T16:33:43.081Z,68.00
2018-05-31T16:36:11.361Z,69.40
2018-05-31T16:38:39.648Z,70.00
2018-05-31T16:41:07.218Z,69.90
2018-05-31T16:43:34.898Z,70.10
2018-05-31T16:46:02.846Z,69.30
2018-05-31T16:48:31.166Z,69.30
2018-05-31T16:50:58.722Z,69.30
2018-05-31T16:53:27.669Z,69.40
2018-05-31T16:55:55.176Z,68.50
2018-05-31T16:58:22.901Z,68.70
2018-05-31T17:00:50.467Z,68.90
2018-05-31T17:03:18.006Z,68.80
2018-05-31T17:05:45.874Z,69.50
2018-05-31T17:08:13.406Z,69.40
2018-05-31T17:10:40.936Z,70.40
2018-05-31T17:13:09.243Z,71.30
2018-05-31T17:15:36.825Z,71.20
2018-05-31T17:18:04.386Z,71.80
2018-05-31T17:20:31.942Z,72.30
2018-05-31T17:22:59.488Z,72.20
2018-05-31T17:25:27.788Z,71.80
2018-05-31T17:27:55.345Z,71.80
2018-05-31T17:30:22.858Z,71.30
2018-05-31T17:32:50.434Z,70.80
2018-05-31T17:35:17.974Z,70.20
2018-05-31T17:37:45.510Z,70.90
2018-05-31T17:40:13.022Z,70.30
2018-05-31T17:42:41.347Z,71.10
2018-05-31T17:45:08.890Z,71.00
2018-05-31T17:47:37.190Z,71.00
2018-05-31T17:50:06.635Z,70.70
2018-05-31T17:52:34.157Z,70.60
2018-05-31T17:55:01.682Z,70.90
2018-05-31T17:57:29.240Z,71.30
2018-05-31T17:59:56.773Z,72.10
2018-05-31T18:02:25.081Z,71.30
2018-05-31T18:04:52.613Z,71.20
2018-05-31T18:07:20.142Z,70.40
2018-05-31T18:09:48.421Z,70.10
2018-05-31T18:12:16.738Z,69.70
2018-05-31T18:14:44.290Z,69.60
2018-05-31T18:17:12.580Z,71.10
2018-05-31T18:19:40.144Z,71.00
2018-05-31T18:22:08.442Z,71.00
2018-05-31T18:24:35.964Z,71.00
2018-05-31T18:27:04.275Z,70.30
2018-05-31T18:29:31.833Z,70.30
2018-05-31T18:32:00.126Z,69.90
2018-05-31T18:34:27.693Z,69.90
2018-05-31T18:36:55.234Z,69.60
2018-05-31T18:39:22.751Z,69.50
2018-05-31T18:41:50.289Z,70.00
2018-05-31T18:44:17.800Z,69.90
2018-05-31T18:46:46.103Z,69.20
2018-05-31T18:49:14.091Z,69.10
2018-05-31T18:51:41.648Z,69.40
2018-05-31T18:54:09.178Z,69.60
2018-05-31T18:56:37.531Z,69.40
2018-05-31T18:59:05.870Z,69.80
2018-05-31T19:01:33.425Z,69.70
2018-05-31T19:04:01.750Z,69.80
2018-05-31T19:06:29.290Z,69.70
2018-05-31T19:08:56.828Z,69.70
2018-05-31T19:11:24.383Z,69.40
2018-05-31T19:13:57.679Z,69.90
2018-05-31T19:16:25.987Z,70.30
2018-05-31T19:18:59.251Z,70.30
2018-05-31T19:21:27.581Z,68.30
2018-05-31T19:23:55.144Z,68.30
2018-05-31T19:26:22.744Z,68.80
2018-05-31T19:28:50.254Z,69.60
2018-05-31T19:31:17.793Z,70.20
2018-05-31T19:33:46.103Z,71.20
2018-05-31T19:36:19.232Z,71.10
2018-05-31T19:38:46.747Z,73.00
2018-05-31T19:41:14.267Z,72.80
2018-05-31T19:43:47.385Z,73.20
2018-05-31T19:46:15.663Z,73.20
2018-05-31T19:48:43.953Z,73.40
2018-05-31T19:51:11.569Z,73.30
2018-05-31T19:53:44.345Z,74.30
2018-05-31T19:56:11.871Z,74.80
2018-05-31T19:58:45.102Z,74.90
2018-05-31T20:01:18.967Z,75.70
2018-05-31T20:03:46.471Z,75.50
2018-05-31T20:06:13.983Z,75.20
2018-05-31T20:08:42.273Z,77.40
2018-05-31T20:11:11.473Z,76.90
2018-05-31T20:13:39.025Z,76.90
2018-05-31T20:16:07.306Z,75.90
2018-05-31T20:18:35.582Z,75.20
2018-05-31T20:21:03.875Z,74.80
2018-05-31T20:23:32.181Z,75.70
2018-05-31T20:25:59.713Z,75.70
2018-05-31T20:28:28.006Z,75.50
2018-05-31T20:30:55.605Z,75.50
2018-05-31T20:33:23.125Z,75.50
2018-05-31T20:35:51.435Z,75.90
2018-05-31T20:38:18.951Z,75.90
2018-05-31T20:40:46.504Z,75.70
2018-05-31T20:43:14.056Z,75.80
2018-05-31T20:45:41.590Z,78.10
2018-05-31T20:48:09.919Z,77.30
2018-05-31T20:50:37.447Z,77.10
2018-05-31T20:53:04.987Z,77.40
2018-05-31T20:55:32.550Z,77.30
2018-05-31T20:58:00.097Z,77.60
2018-05-31T21:00:28.406Z,78.60
2018-05-31T21:02:55.991Z,78.60
2018-05-31T21:05:23.568Z,79.60
2018-05-31T21:07:51.054Z,79.90
2018-05-31T21:10:19.395Z,79.80
2018-05-31T21:12:46.917Z,80.00
2018-05-31T21:15:15.150Z,79.60
2018-05-31T21:17:42.717Z,79.40
2018-05-31T21:20:10.262Z,79.30
2018-05-31T21:22:37.816Z,79.20
2018-05-31T21:25:05.360Z,78.70
2018-05-31T21:27:33.641Z,78.70
2018-05-31T21:30:01.914Z,78.60
2018-05-31T21:32:30.169Z,78.40
2018-05-31T21:34:57.755Z,78.40
2018-05-31T21:37:26.064Z,78.30
2018-05-31T21:39:53.610Z,78.20
2018-05-31T21:42:21.256Z,78.70
2018-05-31T21:44:48.777Z,78.50
2018-05-31T21:47:22.328Z,78.60
2018-05-31T21:49:49.917Z,78.70
2018-05-31T21:52:17.487Z,79.50
2018-05-31T21:54:45.006Z,79.70
2018-05-31T21:57:12.523Z,80.40
2018-05-31T21:59:40.045Z,80.60
2018-05-31T22:02:08.321Z,80.60
2018-05-31T22:04:35.851Z,79.80
2018-05-31T22:07:03.370Z,79.40
2018-05-31T22:09:30.896Z,78.80
2018-05-31T22:11:58.415Z,78.80
2018-05-31T22:14:25.952Z,78.90
2018-05-31T22:16:54.217Z,79.30
2018-05-31T22:19:22.594Z,79.50
2018-05-31T22:21:50.083Z,78.70
2018-05-31T22:24:17.628Z,78.70
2018-05-31T22:26:45.141Z,78.70
2018-05-31T22:29:12.705Z,79.00
2018-05-31T22:31:40.225Z,79.50
2018-05-31T22:34:08.545Z,80.10
2018-05-31T22:36:36.104Z,80.10
2018-05-31T22:39:03.622Z,80.60
2018-05-31T22:41:31.193Z,80.40
2018-05-31T22:43:59.471Z,80.50
2018-05-31T22:46:27.017Z,80.30
2018-05-31T22:48:54.552Z,79.60
2018-05-31T22:51:22.070Z,79.60
2018-05-31T22:53:50.348Z,81.10
2018-05-31T22:56:18.624Z,82.00
2018-05-31T22:58:46.148Z,81.40
2018-05-31T23:01:13.689Z,83.10
2018-05-31T23:03:41.224Z,84.00
2018-05-31T23:06:09.512Z,83.10
2018-05-31T23:08:42.595Z,82.80
2018-05-31T23:11:10.893Z,84.80
2018-05-31T23:13:38.426Z,84.80
2018-05-31T23:16:06.721Z,86.60
2018-05-31T23:18:35.028Z,85.30
2018-05-31T23:21:02.549Z,85.20
2018-05-31T23:23:30.066Z,86.70
2018-05-31T23:25:57.602Z,88.50
2018-05-31T23:28:26.493Z,86.90
2018-05-31T23:30:54.861Z,86.90
2018-05-31T23:33:23.157Z,86.40
2018-05-31T23:35:51.465Z,87.40
2018-05-31T23:38:18.987Z,87.40
2018-05-31T23:40:47.302Z,86.70
2018-05-31T23:43:14.877Z,87.30
2018-05-31T23:45:42.413Z,87.10
2018-05-31T23:48:10.686Z,90.30
2018-05-31T23:50:38.992Z,90.30
2018-05-31T23:53:06.529Z,90.60
2018-05-31T23:55:34.809Z,90.10
2018-05-31T23:58:03.074Z,90.40
